sensor_id;sensor_type;location;lat;lon;timestamp;temperature;humidity
26621;DHT22;14253;44.840;10.444;2023-02-22T00:00:29;9.40;99.90
26621;DHT22;14253;44.840;10.444;2023-02-22T00:03:22;9.40;99.90
26621;DHT22;14253;44.840;10.444;2023-02-22T00:05:56;9.50;99.90
26621;DHT22;14253;44.840;10.444;2023-02-22T00:08:29;9.50;99.90
26621;DHT22;14253;44.840;10.444;2023-02-22T00:11:02;9.40;99.90
26621;DHT22;14253;44.840;10.444;2023-02-22T00:13:29;9.40;99.90
26621;DHT22;14253;44.840;10.444;2023-02-22T00:15:58;9.30;99.90
26621;DHT22;14253;44.840;10.444;2023-02-22T00:18:26;9.30;99.90
26621;DHT22;14253;44.840;10.444;2023-02-22T00:20:57;9.40;99.90
26621;DHT22;14253;44.840;10.444;2023-02-22T00:23:26;9.40;99.90
26621;DHT22;14253;44.840;10.444;2023-02-22T00:25:53;9.40;99.90
26621;DHT22;14253;44.840;10.444;2023-02-22T00:28:20;9.50;99.90
26621;DHT22;14253;44.840;10.444;2023-02-22T00:30:49;9.50;99.90
26621;DHT22;14253;44.840;10.444;2023-02-22T00:33:16;9.50;99.90
26621;DHT22;14253;44.840;10.444;2023-02-22T00:35:43;9.50;99.90
26621;DHT22;14253;44.840;10.444;2023-02-22T00:38:15;9.50;99.90
26621;DHT22;14253;44.840;10.444;2023-02-22T00:40:41;9.50;99.90
26621;DHT22;14253;44.840;10.444;2023-02-22T00:43:07;9.50;99.90
26621;DHT22;14253;44.840;10.444;2023-02-22T00:45:35;9.40;99.90
26621;DHT22;14253;44.840;10.444;2023-02-22T00:48:02;9.40;99.90
26621;DHT22;14253;44.840;10.444;2023-02-22T00:50:30;9.30;99.90
26621;DHT22;14253;44.840;10.444;2023-02-22T00:52:57;9.40;99.90
26621;DHT22;14253;44.840;10.444;2023-02-22T00:55:26;9.30;99.90
26621;DHT22;14253;44.840;10.444;2023-02-22T00:57:53;9.30;99.90
26621;DHT22;14253;44.840;10.444;2023-02-22T01:00:41;9.30;99.90
26621;DHT22;14253;44.840;10.444;2023-02-22T01:03:10;9.20;99.90
26621;DHT22;14253;44.840;10.444;2023-02-22T01:05:36;9.20;99.90
26621;DHT22;14253;44.840;10.444;2023-02-22T01:08:04;9.20;99.90
26621;DHT22;14253;44.840;10.444;2023-02-22T01:10:33;9.20;99.90
26621;DHT22;14253;44.840;10.444;2023-02-22T01:12:59;9.20;99.90
26621;DHT22;14253;44.840;10.444;2023-02-22T01:15:28;9.30;99.90
26621;DHT22;14253;44.840;10.444;2023-02-22T01:17:56;9.30;99.90
26621;DHT22;14253;44.840;10.444;2023-02-22T01:20:24;9.30;99.90
26621;DHT22;14253;44.840;10.444;2023-02-22T01:22:54;9.20;99.90
26621;DHT22;14253;44.840;10.444;2023-02-22T01:25:24;9.20;99.90
26621;DHT22;14253;44.840;10.444;2023-02-22T01:27:50;9.30;99.90
26621;DHT22;14253;44.840;10.444;2023-02-22T01:30:22;9.30;99.90
26621;DHT22;14253;44.840;10.444;2023-02-22T01:32:50;9.30;99.90
26621;DHT22;14253;44.840;10.444;2023-02-22T01:35:21;9.30;99.90
26621;DHT22;14253;44.840;10.444;2023-02-22T01:37:48;9.20;99.90
26621;DHT22;14253;44.840;10.444;2023-02-22T01:40:25;9.20;99.90
26621;DHT22;14253;44.840;10.444;2023-02-22T01:43:13;9.20;99.90
26621;DHT22;14253;44.840;10.444;2023-02-22T01:46:06;9.20;99.90
26621;DHT22;14253;44.840;10.444;2023-02-22T01:48:42;9.20;99.90
26621;DHT22;14253;44.840;10.444;2023-02-22T01:51:23;9.20;99.90
26621;DHT22;14253;44.840;10.444;2023-02-22T01:54:02;9.30;99.90
26621;DHT22;14253;44.840;10.444;2023-02-22T01:56:34;9.30;99.90
26621;DHT22;14253;44.840;10.444;2023-02-22T01:59:06;9.20;99.90
26621;DHT22;14253;44.840;10.444;2023-02-22T02:01:34;9.20;99.90
26621;DHT22;14253;44.840;10.444;2023-02-22T02:04:05;9.20;99.90
26621;DHT22;14253;44.840;10.444;2023-02-22T02:06:33;9.20;99.90
26621;DHT22;14253;44.840;10.444;2023-02-22T02:11:36;9.20;99.90
26621;DHT22;14253;44.840;10.444;2023-02-22T02:14:06;9.20;99.90
26621;DHT22;14253;44.840;10.444;2023-02-22T02:16:45;9.20;99.90
26621;DHT22;14253;44.840;10.444;2023-02-22T02:24:56;9.10;99.90
26621;DHT22;14253;44.840;10.444;2023-02-22T02:36:15;9.00;99.90
26621;DHT22;14253;44.840;10.444;2023-02-22T02:41:29;9.00;99.90
26621;DHT22;14253;44.840;10.444;2023-02-22T02:46:59;9.00;99.90
26621;DHT22;14253;44.840;10.444;2023-02-22T02:49:40;9.00;99.90
26621;DHT22;14253;44.840;10.444;2023-02-22T02:52:09;9.00;99.90
26621;DHT22;14253;44.840;10.444;2023-02-22T02:54:38;9.10;99.90
26621;DHT22;14253;44.840;10.444;2023-02-22T02:57:06;9.10;99.90
26621;DHT22;14253;44.840;10.444;2023-02-22T02:59:36;9.00;99.90
26621;DHT22;14253;44.840;10.444;2023-02-22T03:10:54;9.10;99.90
26621;DHT22;14253;44.840;10.444;2023-02-22T03:16:16;9.00;99.90
26621;DHT22;14253;44.840;10.444;2023-02-22T03:24:31;9.00;99.90
26621;DHT22;14253;44.840;10.444;2023-02-22T03:27:17;9.00;99.90
26621;DHT22;14253;44.840;10.444;2023-02-22T03:29:51;9.00;99.90
26621;DHT22;14253;44.840;10.444;2023-02-22T03:32:21;9.00;99.90
26621;DHT22;14253;44.840;10.444;2023-02-22T03:34:56;8.90;99.90
26621;DHT22;14253;44.840;10.444;2023-02-22T03:37:30;8.90;99.90
26621;DHT22;14253;44.840;10.444;2023-02-22T03:40:00;8.90;99.90
26621;DHT22;14253;44.840;10.444;2023-02-22T03:42:33;8.90;99.90
26621;DHT22;14253;44.840;10.444;2023-02-22T03:45:03;8.90;99.90
26621;DHT22;14253;44.840;10.444;2023-02-22T03:48:13;8.90;99.90
26621;DHT22;14253;44.840;10.444;2023-02-22T03:50:41;8.90;99.90
26621;DHT22;14253;44.840;10.444;2023-02-22T03:53:08;8.90;99.90
26621;DHT22;14253;44.840;10.444;2023-02-22T03:55:38;8.90;99.90
26621;DHT22;14253;44.840;10.444;2023-02-22T03:58:10;8.90;99.90
26621;DHT22;14253;44.840;10.444;2023-02-22T04:00:37;8.80;99.90
26621;DHT22;14253;44.840;10.444;2023-02-22T04:03:04;8.90;99.90
26621;DHT22;14253;44.840;10.444;2023-02-22T04:05:30;8.90;99.90
26621;DHT22;14253;44.840;10.444;2023-02-22T04:07:57;8.90;99.90
26621;DHT22;14253;44.840;10.444;2023-02-22T04:10:25;8.80;99.90
26621;DHT22;14253;44.840;10.444;2023-02-22T04:12:51;8.90;99.90
26621;DHT22;14253;44.840;10.444;2023-02-22T04:15:22;8.90;99.90
26621;DHT22;14253;44.840;10.444;2023-02-22T04:17:51;8.90;99.90
26621;DHT22;14253;44.840;10.444;2023-02-22T04:20:18;8.90;99.90
26621;DHT22;14253;44.840;10.444;2023-02-22T04:22:52;8.90;99.90
26621;DHT22;14253;44.840;10.444;2023-02-22T04:25:20;9.00;99.90
26621;DHT22;14253;44.840;10.444;2023-02-22T04:27:46;8.90;99.90
26621;DHT22;14253;44.840;10.444;2023-02-22T04:30:16;8.90;99.90
26621;DHT22;14253;44.840;10.444;2023-02-22T04:32:43;8.90;99.90
26621;DHT22;14253;44.840;10.444;2023-02-22T04:35:10;8.90;99.90
26621;DHT22;14253;44.840;10.444;2023-02-22T04:37:36;8.90;99.90
26621;DHT22;14253;44.840;10.444;2023-02-22T04:40:05;8.90;99.90
26621;DHT22;14253;44.840;10.444;2023-02-22T04:42:35;8.90;99.90
26621;DHT22;14253;44.840;10.444;2023-02-22T04:45:02;8.90;99.90
26621;DHT22;14253;44.840;10.444;2023-02-22T04:47:28;8.90;99.90
26621;DHT22;14253;44.840;10.444;2023-02-22T04:49:54;8.90;99.90
26621;DHT22;14253;44.840;10.444;2023-02-22T04:52:21;8.90;99.90
26621;DHT22;14253;44.840;10.444;2023-02-22T04:54:47;8.90;99.90
26621;DHT22;14253;44.840;10.444;2023-02-22T04:57:13;8.90;99.90
26621;DHT22;14253;44.840;10.444;2023-02-22T04:59:39;8.90;99.90
26621;DHT22;14253;44.840;10.444;2023-02-22T05:02:06;8.90;99.90
26621;DHT22;14253;44.840;10.444;2023-02-22T05:04:32;8.90;99.90
26621;DHT22;14253;44.840;10.444;2023-02-22T05:06:57;8.90;99.90
26621;DHT22;14253;44.840;10.444;2023-02-22T05:09:23;8.90;99.90
26621;DHT22;14253;44.840;10.444;2023-02-22T05:11:49;8.90;99.90
26621;DHT22;14253;44.840;10.444;2023-02-22T05:14:15;8.90;99.90
26621;DHT22;14253;44.840;10.444;2023-02-22T05:16:41;8.90;99.90
26621;DHT22;14253;44.840;10.444;2023-02-22T05:19:07;8.90;99.90
26621;DHT22;14253;44.840;10.444;2023-02-22T05:21:33;8.90;99.90
26621;DHT22;14253;44.840;10.444;2023-02-22T05:23:59;8.90;99.90
26621;DHT22;14253;44.840;10.444;2023-02-22T05:26:25;8.90;99.90
26621;DHT22;14253;44.840;10.444;2023-02-22T05:28:51;8.90;99.90
26621;DHT22;14253;44.840;10.444;2023-02-22T05:31:17;8.90;99.90
26621;DHT22;14253;44.840;10.444;2023-02-22T05:33:43;8.90;99.90
26621;DHT22;14253;44.840;10.444;2023-02-22T05:36:09;8.90;99.90
26621;DHT22;14253;44.840;10.444;2023-02-22T05:38:35;8.90;99.90
26621;DHT22;14253;44.840;10.444;2023-02-22T05:41:12;8.90;99.90
26621;DHT22;14253;44.840;10.444;2023-02-22T05:43:38;8.90;99.90
26621;DHT22;14253;44.840;10.444;2023-02-22T05:46:05;8.90;99.90
26621;DHT22;14253;44.840;10.444;2023-02-22T05:48:31;8.90;99.90
26621;DHT22;14253;44.840;10.444;2023-02-22T05:50:57;8.90;99.90
26621;DHT22;14253;44.840;10.444;2023-02-22T05:53:23;8.90;99.90
26621;DHT22;14253;44.840;10.444;2023-02-22T05:55:50;8.90;99.90
26621;DHT22;14253;44.840;10.444;2023-02-22T05:58:16;8.90;99.90
26621;DHT22;14253;44.840;10.444;2023-02-22T06:00:42;8.90;99.90
26621;DHT22;14253;44.840;10.444;2023-02-22T06:03:09;8.90;99.90
26621;DHT22;14253;44.840;10.444;2023-02-22T06:05:39;8.90;99.90
26621;DHT22;14253;44.840;10.444;2023-02-22T06:08:06;8.90;99.90
26621;DHT22;14253;44.840;10.444;2023-02-22T06:10:33;8.90;99.90
26621;DHT22;14253;44.840;10.444;2023-02-22T06:13:00;8.90;99.90
26621;DHT22;14253;44.840;10.444;2023-02-22T06:15:26;8.90;99.90
26621;DHT22;14253;44.840;10.444;2023-02-22T06:17:54;8.90;99.90
26621;DHT22;14253;44.840;10.444;2023-02-22T06:20:22;8.90;99.90
26621;DHT22;14253;44.840;10.444;2023-02-22T06:22:53;8.90;99.90
26621;DHT22;14253;44.840;10.444;2023-02-22T06:25:24;8.90;99.90
26621;DHT22;14253;44.840;10.444;2023-02-22T06:27:51;8.90;99.90
26621;DHT22;14253;44.840;10.444;2023-02-22T06:30:19;8.90;99.90
26621;DHT22;14253;44.840;10.444;2023-02-22T06:32:45;8.90;99.90
26621;DHT22;14253;44.840;10.444;2023-02-22T06:35:11;8.90;99.90
26621;DHT22;14253;44.840;10.444;2023-02-22T06:37:38;8.90;99.90
26621;DHT22;14253;44.840;10.444;2023-02-22T06:40:04;8.90;99.90
26621;DHT22;14253;44.840;10.444;2023-02-22T06:42:30;8.90;99.90
26621;DHT22;14253;44.840;10.444;2023-02-22T06:44:56;8.90;99.90
26621;DHT22;14253;44.840;10.444;2023-02-22T06:47:22;8.90;99.90
26621;DHT22;14253;44.840;10.444;2023-02-22T06:49:55;8.90;99.90
26621;DHT22;14253;44.840;10.444;2023-02-22T06:52:22;8.90;99.90
26621;DHT22;14253;44.840;10.444;2023-02-22T06:54:49;8.90;99.90
26621;DHT22;14253;44.840;10.444;2023-02-22T06:57:16;8.90;99.90
26621;DHT22;14253;44.840;10.444;2023-02-22T06:59:42;8.90;99.90
26621;DHT22;14253;44.840;10.444;2023-02-22T07:02:11;8.90;99.90
26621;DHT22;14253;44.840;10.444;2023-02-22T07:04:38;8.90;99.90
26621;DHT22;14253;44.840;10.444;2023-02-22T07:07:04;8.90;99.90
26621;DHT22;14253;44.840;10.444;2023-02-22T07:09:30;8.90;99.90
26621;DHT22;14253;44.840;10.444;2023-02-22T07:11:56;9.00;99.90
26621;DHT22;14253;44.840;10.444;2023-02-22T07:14:22;8.90;99.90
26621;DHT22;14253;44.840;10.444;2023-02-22T07:16:49;9.00;99.90
26621;DHT22;14253;44.840;10.444;2023-02-22T07:19:15;9.00;99.90
26621;DHT22;14253;44.840;10.444;2023-02-22T07:21:41;9.00;99.90
26621;DHT22;14253;44.840;10.444;2023-02-22T07:24:07;9.00;99.90
26621;DHT22;14253;44.840;10.444;2023-02-22T07:26:41;9.00;99.90
26621;DHT22;14253;44.840;10.444;2023-02-22T07:29:07;9.00;99.90
26621;DHT22;14253;44.840;10.444;2023-02-22T07:31:37;9.00;99.90
26621;DHT22;14253;44.840;10.444;2023-02-22T07:34:03;9.00;99.90
26621;DHT22;14253;44.840;10.444;2023-02-22T07:36:29;9.00;99.90
26621;DHT22;14253;44.840;10.444;2023-02-22T07:38:55;9.00;99.90
26621;DHT22;14253;44.840;10.444;2023-02-22T07:41:21;9.00;99.90
26621;DHT22;14253;44.840;10.444;2023-02-22T07:43:47;9.10;99.90
26621;DHT22;14253;44.840;10.444;2023-02-22T07:46:13;9.00;99.90
26621;DHT22;14253;44.840;10.444;2023-02-22T07:48:40;9.00;99.90
26621;DHT22;14253;44.840;10.444;2023-02-22T07:51:06;9.00;99.90
26621;DHT22;14253;44.840;10.444;2023-02-22T07:53:32;9.10;99.90
26621;DHT22;14253;44.840;10.444;2023-02-22T07:56:00;9.00;99.90
26621;DHT22;14253;44.840;10.444;2023-02-22T07:58:28;9.00;99.90
26621;DHT22;14253;44.840;10.444;2023-02-22T08:00:55;9.00;99.90
26621;DHT22;14253;44.840;10.444;2023-02-22T08:03:24;9.00;99.90
26621;DHT22;14253;44.840;10.444;2023-02-22T08:05:55;9.00;99.90
26621;DHT22;14253;44.840;10.444;2023-02-22T08:08:22;9.00;99.90
26621;DHT22;14253;44.840;10.444;2023-02-22T08:10:50;9.00;99.90
26621;DHT22;14253;44.840;10.444;2023-02-22T08:13:17;9.00;99.90
26621;DHT22;14253;44.840;10.444;2023-02-22T08:15:43;9.00;99.90
26621;DHT22;14253;44.840;10.444;2023-02-22T08:18:14;9.00;99.90
26621;DHT22;14253;44.840;10.444;2023-02-22T08:20:41;9.00;99.90
26621;DHT22;14253;44.840;10.444;2023-02-22T08:23:08;9.00;99.90
26621;DHT22;14253;44.840;10.444;2023-02-22T08:25:35;9.00;99.90
26621;DHT22;14253;44.840;10.444;2023-02-22T08:28:11;9.00;99.90
26621;DHT22;14253;44.840;10.444;2023-02-22T08:30:38;9.00;99.90
26621;DHT22;14253;44.840;10.444;2023-02-22T08:33:21;9.10;99.90
26621;DHT22;14253;44.840;10.444;2023-02-22T08:35:53;9.10;99.90
26621;DHT22;14253;44.840;10.444;2023-02-22T08:38:29;9.10;99.90
26621;DHT22;14253;44.840;10.444;2023-02-22T08:40:55;9.10;99.90
26621;DHT22;14253;44.840;10.444;2023-02-22T08:43:22;9.20;99.90
26621;DHT22;14253;44.840;10.444;2023-02-22T08:45:48;9.20;99.90
26621;DHT22;14253;44.840;10.444;2023-02-22T08:48:16;9.20;99.90
26621;DHT22;14253;44.840;10.444;2023-02-22T08:50:42;9.30;99.90
26621;DHT22;14253;44.840;10.444;2023-02-22T08:53:09;9.30;99.90
26621;DHT22;14253;44.840;10.444;2023-02-22T08:55:39;9.30;99.90
26621;DHT22;14253;44.840;10.444;2023-02-22T08:58:06;9.30;99.90
26621;DHT22;14253;44.840;10.444;2023-02-22T09:00:38;9.30;99.90
26621;DHT22;14253;44.840;10.444;2023-02-22T09:03:06;9.40;99.90
26621;DHT22;14253;44.840;10.444;2023-02-22T09:05:32;9.30;99.90
26621;DHT22;14253;44.840;10.444;2023-02-22T09:07:59;9.30;99.90
26621;DHT22;14253;44.840;10.444;2023-02-22T09:10:28;9.30;99.90
26621;DHT22;14253;44.840;10.444;2023-02-22T09:12:54;9.40;99.90
26621;DHT22;14253;44.840;10.444;2023-02-22T09:15:21;9.40;99.90
26621;DHT22;14253;44.840;10.444;2023-02-22T09:17:48;9.40;99.90
26621;DHT22;14253;44.840;10.444;2023-02-22T09:20:17;9.40;99.90
26621;DHT22;14253;44.840;10.444;2023-02-22T09:22:47;9.40;99.90
26621;DHT22;14253;44.840;10.444;2023-02-22T09:25:14;9.50;99.90
26621;DHT22;14253;44.840;10.444;2023-02-22T09:27:40;9.50;99.90
26621;DHT22;14253;44.840;10.444;2023-02-22T09:30:15;9.50;99.90
26621;DHT22;14253;44.840;10.444;2023-02-22T09:32:41;9.60;99.90
26621;DHT22;14253;44.840;10.444;2023-02-22T09:35:07;9.60;99.90
26621;DHT22;14253;44.840;10.444;2023-02-22T09:37:33;9.70;99.90
26621;DHT22;14253;44.840;10.444;2023-02-22T09:39:59;9.70;99.90
26621;DHT22;14253;44.840;10.444;2023-02-22T09:42:48;9.70;99.90
26621;DHT22;14253;44.840;10.444;2023-02-22T09:45:19;9.70;99.90
26621;DHT22;14253;44.840;10.444;2023-02-22T09:47:54;9.70;99.90
26621;DHT22;14253;44.840;10.444;2023-02-22T09:50:24;9.70;99.90
26621;DHT22;14253;44.840;10.444;2023-02-22T09:58:03;9.90;99.90
26621;DHT22;14253;44.840;10.444;2023-02-22T10:00:33;9.90;99.90
26621;DHT22;14253;44.840;10.444;2023-02-22T10:05:46;10.00;99.90
26621;DHT22;14253;44.840;10.444;2023-02-22T10:08:16;10.10;99.90
26621;DHT22;14253;44.840;10.444;2023-02-22T10:10:47;10.10;99.90
26621;DHT22;14253;44.840;10.444;2023-02-22T10:13:41;10.10;99.90
26621;DHT22;14253;44.840;10.444;2023-02-22T10:19:15;10.20;99.90
26621;DHT22;14253;44.840;10.444;2023-02-22T10:27:14;10.40;99.90
26621;DHT22;14253;44.840;10.444;2023-02-22T10:29:43;10.40;99.90
26621;DHT22;14253;44.840;10.444;2023-02-22T10:32:16;10.40;99.90
26621;DHT22;14253;44.840;10.444;2023-02-22T10:34:47;10.50;99.90
26621;DHT22;14253;44.840;10.444;2023-02-22T10:37:28;10.60;99.90
26621;DHT22;14253;44.840;10.444;2023-02-22T10:40:28;10.60;99.90
26621;DHT22;14253;44.840;10.444;2023-02-22T10:42:48;10.60;99.90
26621;DHT22;14253;44.840;10.444;2023-02-22T10:45:27;10.60;99.90
26621;DHT22;14253;44.840;10.444;2023-02-22T10:47:59;10.70;99.90
26621;DHT22;14253;44.840;10.444;2023-02-22T10:50:35;10.70;99.90
26621;DHT22;14253;44.840;10.444;2023-02-22T10:53:02;10.70;99.90
26621;DHT22;14253;44.840;10.444;2023-02-22T10:55:28;10.80;99.90
26621;DHT22;14253;44.840;10.444;2023-02-22T10:58:07;10.80;99.90
26621;DHT22;14253;44.840;10.444;2023-02-22T11:00:36;10.90;99.90
26621;DHT22;14253;44.840;10.444;2023-02-22T11:05:41;10.90;99.90
26621;DHT22;14253;44.840;10.444;2023-02-22T11:10:51;11.00;99.90
26621;DHT22;14253;44.840;10.444;2023-02-22T11:13:38;11.00;99.90
26621;DHT22;14253;44.840;10.444;2023-02-22T11:19:26;11.10;99.90
26621;DHT22;14253;44.840;10.444;2023-02-22T11:21:55;11.20;99.90
26621;DHT22;14253;44.840;10.444;2023-02-22T11:24:23;11.30;99.90
26621;DHT22;14253;44.840;10.444;2023-02-22T11:27:00;11.40;99.90
26621;DHT22;14253;44.840;10.444;2023-02-22T11:29:36;11.40;99.90
26621;DHT22;14253;44.840;10.444;2023-02-22T11:32:15;11.50;99.90
26621;DHT22;14253;44.840;10.444;2023-02-22T11:34:46;11.50;99.90
26621;DHT22;14253;44.840;10.444;2023-02-22T11:37:32;11.60;99.90
26621;DHT22;14253;44.840;10.444;2023-02-22T11:42:29;11.70;99.90
26621;DHT22;14253;44.840;10.444;2023-02-22T11:47:52;11.70;99.90
26621;DHT22;14253;44.840;10.444;2023-02-22T11:56:21;11.80;99.90
26621;DHT22;14253;44.840;10.444;2023-02-22T12:03:51;12.20;99.90
26621;DHT22;14253;44.840;10.444;2023-02-22T12:07:00;12.20;99.90
26621;DHT22;14253;44.840;10.444;2023-02-22T12:09:59;12.20;99.90
26621;DHT22;14253;44.840;10.444;2023-02-22T12:15:22;12.40;99.90
26621;DHT22;14253;44.840;10.444;2023-02-22T12:18:08;12.50;99.90
26621;DHT22;14253;44.840;10.444;2023-02-22T12:20:43;12.40;99.90
26621;DHT22;14253;44.840;10.444;2023-02-22T12:26:13;12.40;99.90
26621;DHT22;14253;44.840;10.444;2023-02-22T12:28:47;12.40;99.90
26621;DHT22;14253;44.840;10.444;2023-02-22T12:31:22;12.50;99.90
26621;DHT22;14253;44.840;10.444;2023-02-22T12:36:43;12.70;99.90
26621;DHT22;14253;44.840;10.444;2023-02-22T12:41:55;12.80;99.90
26621;DHT22;14253;44.840;10.444;2023-02-22T12:44:27;12.80;99.90
26621;DHT22;14253;44.840;10.444;2023-02-22T12:46:56;12.70;99.90
26621;DHT22;14253;44.840;10.444;2023-02-22T12:49:44;12.80;99.90
26621;DHT22;14253;44.840;10.444;2023-02-22T12:52:43;12.80;99.90
26621;DHT22;14253;44.840;10.444;2023-02-22T12:55:27;12.80;99.90
26621;DHT22;14253;44.840;10.444;2023-02-22T13:01:00;12.90;99.90
26621;DHT22;14253;44.840;10.444;2023-02-22T13:09:07;13.00;99.90
26621;DHT22;14253;44.840;10.444;2023-02-22T13:20:11;13.20;99.90
26621;DHT22;14253;44.840;10.444;2023-02-22T13:22:49;13.30;99.90
26621;DHT22;14253;44.840;10.444;2023-02-22T13:30:36;13.60;99.90
26621;DHT22;14253;44.840;10.444;2023-02-22T13:36:09;13.50;99.90
26621;DHT22;14253;44.840;10.444;2023-02-22T13:39:00;13.50;99.90
26621;DHT22;14253;44.840;10.444;2023-02-22T13:41:53;13.50;99.90
26621;DHT22;14253;44.840;10.444;2023-02-22T13:52:33;13.60;99.90
26621;DHT22;14253;44.840;10.444;2023-02-22T13:55:06;13.50;99.90
26621;DHT22;14253;44.840;10.444;2023-02-22T13:57:44;13.50;99.90
26621;DHT22;14253;44.840;10.444;2023-02-22T14:03:05;13.50;99.90
26621;DHT22;14253;44.840;10.444;2023-02-22T14:10:58;13.40;99.90
26621;DHT22;14253;44.840;10.444;2023-02-22T14:13:25;13.40;99.90
26621;DHT22;14253;44.840;10.444;2023-02-22T14:18:43;13.30;99.90
26621;DHT22;14253;44.840;10.444;2023-02-22T14:21:13;13.30;99.90
26621;DHT22;14253;44.840;10.444;2023-02-22T14:23:42;13.30;99.90
26621;DHT22;14253;44.840;10.444;2023-02-22T14:29:13;13.30;99.90
26621;DHT22;14253;44.840;10.444;2023-02-22T14:34:15;13.10;99.90
26621;DHT22;14253;44.840;10.444;2023-02-22T14:36:58;13.10;99.90
26621;DHT22;14253;44.840;10.444;2023-02-22T14:39:45;13.00;99.90
26621;DHT22;14253;44.840;10.444;2023-02-22T14:42:28;13.00;99.90
26621;DHT22;14253;44.840;10.444;2023-02-22T14:50:26;12.80;99.90
26621;DHT22;14253;44.840;10.444;2023-02-22T14:53:22;12.70;99.90
26621;DHT22;14253;44.840;10.444;2023-02-22T14:56:00;12.80;99.90
26621;DHT22;14253;44.840;10.444;2023-02-22T14:58:52;12.70;99.90
26621;DHT22;14253;44.840;10.444;2023-02-22T15:01:36;12.70;99.90
26621;DHT22;14253;44.840;10.444;2023-02-22T15:04:19;12.70;99.90
26621;DHT22;14253;44.840;10.444;2023-02-22T15:06:47;12.70;99.90
26621;DHT22;14253;44.840;10.444;2023-02-22T15:09:16;12.60;99.90
26621;DHT22;14253;44.840;10.444;2023-02-22T15:11:54;12.60;99.90
26621;DHT22;14253;44.840;10.444;2023-02-22T15:14:36;12.60;99.90
26621;DHT22;14253;44.840;10.444;2023-02-22T15:17:19;12.60;99.90
26621;DHT22;14253;44.840;10.444;2023-02-22T15:19:47;12.50;99.90
26621;DHT22;14253;44.840;10.444;2023-02-22T15:22:26;12.40;99.90
26621;DHT22;14253;44.840;10.444;2023-02-22T15:25:04;12.40;99.90
26621;DHT22;14253;44.840;10.444;2023-02-22T15:27:30;12.40;99.90
26621;DHT22;14253;44.840;10.444;2023-02-22T15:30:06;12.40;99.90
26621;DHT22;14253;44.840;10.444;2023-02-22T15:32:37;12.40;99.90
26621;DHT22;14253;44.840;10.444;2023-02-22T15:38:11;12.30;99.90
26621;DHT22;14253;44.840;10.444;2023-02-22T15:40:42;12.30;99.90
26621;DHT22;14253;44.840;10.444;2023-02-22T15:43:22;12.20;99.90
26621;DHT22;14253;44.840;10.444;2023-02-22T15:45:54;12.30;99.90
26621;DHT22;14253;44.840;10.444;2023-02-22T15:48:20;12.40;99.90
26621;DHT22;14253;44.840;10.444;2023-02-22T15:51:10;12.40;99.90
26621;DHT22;14253;44.840;10.444;2023-02-22T15:53:45;12.50;99.90
26621;DHT22;14253;44.840;10.444;2023-02-22T15:56:15;12.40;99.90
26621;DHT22;14253;44.840;10.444;2023-02-22T15:58:43;12.40;99.90
26621;DHT22;14253;44.840;10.444;2023-02-22T16:01:14;12.40;99.90
26621;DHT22;14253;44.840;10.444;2023-02-22T16:03:50;12.30;99.90
26621;DHT22;14253;44.840;10.444;2023-02-22T16:06:34;12.40;99.90
26621;DHT22;14253;44.840;10.444;2023-02-22T16:09:07;12.40;99.90
26621;DHT22;14253;44.840;10.444;2023-02-22T16:11:37;12.30;99.90
26621;DHT22;14253;44.840;10.444;2023-02-22T16:14:22;12.30;99.90
26621;DHT22;14253;44.840;10.444;2023-02-22T16:16:48;12.30;99.90
26621;DHT22;14253;44.840;10.444;2023-02-22T16:19:43;12.20;99.90
26621;DHT22;14253;44.840;10.444;2023-02-22T16:22:25;12.10;99.90
26621;DHT22;14253;44.840;10.444;2023-02-22T16:24:51;12.10;99.90
26621;DHT22;14253;44.840;10.444;2023-02-22T16:27:22;12.10;99.90
26621;DHT22;14253;44.840;10.444;2023-02-22T16:30:25;12.10;99.90
26621;DHT22;14253;44.840;10.444;2023-02-22T16:32:53;12.10;99.90
26621;DHT22;14253;44.840;10.444;2023-02-22T16:35:20;12.10;99.90
26621;DHT22;14253;44.840;10.444;2023-02-22T16:37:53;12.00;99.90
26621;DHT22;14253;44.840;10.444;2023-02-22T16:40:50;12.00;99.90
26621;DHT22;14253;44.840;10.444;2023-02-22T16:43:29;11.90;99.90
26621;DHT22;14253;44.840;10.444;2023-02-22T16:45:58;11.90;99.90
26621;DHT22;14253;44.840;10.444;2023-02-22T16:48:27;11.80;99.90
26621;DHT22;14253;44.840;10.444;2023-02-22T16:51:01;11.80;99.90
26621;DHT22;14253;44.840;10.444;2023-02-22T16:53:31;11.70;99.90
26621;DHT22;14253;44.840;10.444;2023-02-22T16:56:02;11.70;99.90
26621;DHT22;14253;44.840;10.444;2023-02-22T16:58:32;11.70;99.90
26621;DHT22;14253;44.840;10.444;2023-02-22T17:00:58;11.70;99.90
26621;DHT22;14253;44.840;10.444;2023-02-22T17:03:24;11.70;99.90
26621;DHT22;14253;44.840;10.444;2023-02-22T17:05:51;11.60;99.90
26621;DHT22;14253;44.840;10.444;2023-02-22T17:08:17;11.60;99.90
26621;DHT22;14253;44.840;10.444;2023-02-22T17:10:43;11.50;99.90
26621;DHT22;14253;44.840;10.444;2023-02-22T17:13:18;11.50;99.90
26621;DHT22;14253;44.840;10.444;2023-02-22T17:15:45;11.50;99.90
26621;DHT22;14253;44.840;10.444;2023-02-22T17:18:12;11.40;99.90
26621;DHT22;14253;44.840;10.444;2023-02-22T17:20:38;11.40;99.90
26621;DHT22;14253;44.840;10.444;2023-02-22T17:23:06;11.40;99.90
26621;DHT22;14253;44.840;10.444;2023-02-22T17:25:37;11.40;99.90
26621;DHT22;14253;44.840;10.444;2023-02-22T17:28:05;11.40;99.90
26621;DHT22;14253;44.840;10.444;2023-02-22T17:30:31;11.40;99.90
26621;DHT22;14253;44.840;10.444;2023-02-22T17:32:59;11.30;99.90
26621;DHT22;14253;44.840;10.444;2023-02-22T17:35:30;11.30;99.90
26621;DHT22;14253;44.840;10.444;2023-02-22T17:37:58;11.30;99.90
26621;DHT22;14253;44.840;10.444;2023-02-22T17:40:35;11.30;99.90
26621;DHT22;14253;44.840;10.444;2023-02-22T17:43:02;11.20;99.90
26621;DHT22;14253;44.840;10.444;2023-02-22T17:45:29;11.20;99.90
26621;DHT22;14253;44.840;10.444;2023-02-22T17:47:55;11.20;99.90
26621;DHT22;14253;44.840;10.444;2023-02-22T17:50:24;11.20;99.90
26621;DHT22;14253;44.840;10.444;2023-02-22T17:52:50;11.20;99.90
26621;DHT22;14253;44.840;10.444;2023-02-22T17:55:18;11.20;99.90
26621;DHT22;14253;44.840;10.444;2023-02-22T17:57:45;11.20;99.90
26621;DHT22;14253;44.840;10.444;2023-02-22T18:00:14;11.10;99.90
26621;DHT22;14253;44.840;10.444;2023-02-22T18:02:42;11.10;99.90
26621;DHT22;14253;44.840;10.444;2023-02-22T18:05:11;11.10;99.90
26621;DHT22;14253;44.840;10.444;2023-02-22T18:07:41;11.10;99.90
26621;DHT22;14253;44.840;10.444;2023-02-22T18:10:08;11.10;99.90
26621;DHT22;14253;44.840;10.444;2023-02-22T18:12:40;11.00;99.90
26621;DHT22;14253;44.840;10.444;2023-02-22T18:15:08;11.00;99.90
26621;DHT22;14253;44.840;10.444;2023-02-22T18:17:36;11.00;99.90
26621;DHT22;14253;44.840;10.444;2023-02-22T18:20:03;11.00;99.90